sensor_id;sensor_type;location;lat;lon;timestamp;temperature;humidity
11736;DHT22;5924;51.398;7.088;2023-06-24T00:00:57;15.40;99.90
11736;DHT22;5924;51.398;7.088;2023-06-24T00:03:23;15.30;99.90
11736;DHT22;5924;51.398;7.088;2023-06-24T00:05:48;14.90;99.90
11736;DHT22;5924;51.398;7.088;2023-06-24T00:08:19;15.30;99.90
11736;DHT22;5924;51.398;7.088;2023-06-24T00:10:46;15.30;99.90
11736;DHT22;5924;51.398;7.088;2023-06-24T00:13:13;15.20;99.90
11736;DHT22;5924;51.398;7.088;2023-06-24T00:15:39;15.30;99.90
11736;DHT22;5924;51.398;7.088;2023-06-24T00:18:11;15.20;99.90
11736;DHT22;5924;51.398;7.088;2023-06-24T00:20:37;15.20;99.90
11736;DHT22;5924;51.398;7.088;2023-06-24T00:23:03;15.20;99.90
11736;DHT22;5924;51.398;7.088;2023-06-24T00:25:29;15.10;99.90
11736;DHT22;5924;51.398;7.088;2023-06-24T00:27:55;15.10;99.90
11736;DHT22;5924;51.398;7.088;2023-06-24T00:30:22;15.10;99.90
11736;DHT22;5924;51.398;7.088;2023-06-24T00:32:48;15.00;99.90
11736;DHT22;5924;51.398;7.088;2023-06-24T00:35:13;15.00;99.90
11736;DHT22;5924;51.398;7.088;2023-06-24T00:37:39;15.00;99.90
11736;DHT22;5924;51.398;7.088;2023-06-24T00:40:07;15.00;99.90
11736;DHT22;5924;51.398;7.088;2023-06-24T00:42:37;15.00;99.90
11736;DHT22;5924;51.398;7.088;2023-06-24T00:45:03;14.90;99.90
11736;DHT22;5924;51.398;7.088;2023-06-24T00:47:31;14.90;99.90
11736;DHT22;5924;51.398;7.088;2023-06-24T00:49:57;14.90;99.90
11736;DHT22;5924;51.398;7.088;2023-06-24T00:52:23;14.90;99.90
11736;DHT22;5924;51.398;7.088;2023-06-24T00:54:49;14.90;99.90
11736;DHT22;5924;51.398;7.088;2023-06-24T00:57:15;14.80;99.90
11736;DHT22;5924;51.398;7.088;2023-06-24T00:59:43;14.80;99.90
11736;DHT22;5924;51.398;7.088;2023-06-24T01:02:09;14.80;99.90
11736;DHT22;5924;51.398;7.088;2023-06-24T01:04:36;14.80;99.90
11736;DHT22;5924;51.398;7.088;2023-06-24T01:07:02;14.70;99.90
11736;DHT22;5924;51.398;7.088;2023-06-24T01:09:29;14.70;99.90
11736;DHT22;5924;51.398;7.088;2023-06-24T01:11:55;14.70;99.90
11736;DHT22;5924;51.398;7.088;2023-06-24T01:14:21;14.60;99.90
11736;DHT22;5924;51.398;7.088;2023-06-24T01:17:11;14.60;99.90
11736;DHT22;5924;51.398;7.088;2023-06-24T01:36:43;14.50;99.90
11736;DHT22;5924;51.398;7.088;2023-06-24T01:39:12;14.50;99.90
11736;DHT22;5924;51.398;7.088;2023-06-24T01:41:44;14.40;99.90
11736;DHT22;5924;51.398;7.088;2023-06-24T01:44:12;14.40;99.90
11736;DHT22;5924;51.398;7.088;2023-06-24T01:46:39;14.50;99.90
11736;DHT22;5924;51.398;7.088;2023-06-24T01:49:07;14.40;99.90
11736;DHT22;5924;51.398;7.088;2023-06-24T01:51:38;14.30;99.90
11736;DHT22;5924;51.398;7.088;2023-06-24T01:54:08;14.30;99.90
11736;DHT22;5924;51.398;7.088;2023-06-24T01:56:37;14.30;99.90
11736;DHT22;5924;51.398;7.088;2023-06-24T01:59:04;14.20;99.90
11736;DHT22;5924;51.398;7.088;2023-06-24T02:01:32;14.20;99.90
11736;DHT22;5924;51.398;7.088;2023-06-24T02:04:00;14.20;99.90
11736;DHT22;5924;51.398;7.088;2023-06-24T02:06:28;12.40;99.90
11736;DHT22;5924;51.398;7.088;2023-06-24T02:08:56;14.20;99.90
11736;DHT22;5924;51.398;7.088;2023-06-24T02:11:24;14.20;99.90
11736;DHT22;5924;51.398;7.088;2023-06-24T02:13:53;14.20;99.90
11736;DHT22;5924;51.398;7.088;2023-06-24T02:16:20;14.20;99.90
11736;DHT22;5924;51.398;7.088;2023-06-24T02:18:46;14.20;99.90
11736;DHT22;5924;51.398;7.088;2023-06-24T02:21:14;14.10;99.90
11736;DHT22;5924;51.398;7.088;2023-06-24T02:23:41;14.10;99.90
11736;DHT22;5924;51.398;7.088;2023-06-24T02:26:08;14.10;99.90
11736;DHT22;5924;51.398;7.088;2023-06-24T02:28:35;14.10;99.90
11736;DHT22;5924;51.398;7.088;2023-06-24T02:31:03;14.00;99.90
11736;DHT22;5924;51.398;7.088;2023-06-24T02:33:29;14.00;99.90
11736;DHT22;5924;51.398;7.088;2023-06-24T02:35:55;14.00;99.90
11736;DHT22;5924;51.398;7.088;2023-06-24T02:38:22;14.00;99.90
11736;DHT22;5924;51.398;7.088;2023-06-24T02:40:48;14.00;99.90
11736;DHT22;5924;51.398;7.088;2023-06-24T02:43:14;14.00;99.90
11736;DHT22;5924;51.398;7.088;2023-06-24T02:45:41;14.00;99.90
11736;DHT22;5924;51.398;7.088;2023-06-24T02:48:09;14.00;99.90
11736;DHT22;5924;51.398;7.088;2023-06-24T02:50:37;14.00;99.90
11736;DHT22;5924;51.398;7.088;2023-06-24T02:53:03;14.10;99.90
11736;DHT22;5924;51.398;7.088;2023-06-24T02:55:30;14.00;99.90
11736;DHT22;5924;51.398;7.088;2023-06-24T02:57:56;14.00;99.90
11736;DHT22;5924;51.398;7.088;2023-06-24T03:00:23;14.00;99.90
11736;DHT22;5924;51.398;7.088;2023-06-24T03:02:50;14.00;99.90
11736;DHT22;5924;51.398;7.088;2023-06-24T03:05:16;13.90;99.90
11736;DHT22;5924;51.398;7.088;2023-06-24T03:07:42;13.90;99.90
11736;DHT22;5924;51.398;7.088;2023-06-24T03:10:09;13.90;99.90
11736;DHT22;5924;51.398;7.088;2023-06-24T03:12:36;14.00;99.90
11736;DHT22;5924;51.398;7.088;2023-06-24T03:15:02;14.00;99.90
11736;DHT22;5924;51.398;7.088;2023-06-24T03:17:27;13.90;99.90
11736;DHT22;5924;51.398;7.088;2023-06-24T03:19:53;13.90;99.90
11736;DHT22;5924;51.398;7.088;2023-06-24T03:22:19;13.90;99.90
11736;DHT22;5924;51.398;7.088;2023-06-24T03:24:45;13.90;99.90
11736;DHT22;5924;51.398;7.088;2023-06-24T03:27:11;13.90;99.90
11736;DHT22;5924;51.398;7.088;2023-06-24T03:29:36;13.90;99.90
11736;DHT22;5924;51.398;7.088;2023-06-24T03:32:02;13.90;99.90
11736;DHT22;5924;51.398;7.088;2023-06-24T03:34:28;14.00;99.90
11736;DHT22;5924;51.398;7.088;2023-06-24T03:36:54;14.00;99.90
11736;DHT22;5924;51.398;7.088;2023-06-24T03:39:20;14.10;99.90
11736;DHT22;5924;51.398;7.088;2023-06-24T03:41:46;14.10;99.90
11736;DHT22;5924;51.398;7.088;2023-06-24T03:44:12;15.40;99.90
11736;DHT22;5924;51.398;7.088;2023-06-24T03:46:37;14.10;99.90
11736;DHT22;5924;51.398;7.088;2023-06-24T03:49:03;14.20;99.90
11736;DHT22;5924;51.398;7.088;2023-06-24T03:51:29;14.20;99.90
11736;DHT22;5924;51.398;7.088;2023-06-24T03:53:55;14.20;99.90
11736;DHT22;5924;51.398;7.088;2023-06-24T03:56:21;14.20;99.90
11736;DHT22;5924;51.398;7.088;2023-06-24T03:58:46;14.20;99.90
11736;DHT22;5924;51.398;7.088;2023-06-24T04:01:12;14.30;99.90
11736;DHT22;5924;51.398;7.088;2023-06-24T04:03:37;14.20;99.90
11736;DHT22;5924;51.398;7.088;2023-06-24T04:06:03;14.30;99.90
11736;DHT22;5924;51.398;7.088;2023-06-24T04:08:29;14.40;99.90
11736;DHT22;5924;51.398;7.088;2023-06-24T04:10:58;14.40;99.90
11736;DHT22;5924;51.398;7.088;2023-06-24T04:13:29;14.50;99.90
11736;DHT22;5924;51.398;7.088;2023-06-24T04:15:54;14.60;99.90
11736;DHT22;5924;51.398;7.088;2023-06-24T04:18:20;14.70;99.90
11736;DHT22;5924;51.398;7.088;2023-06-24T04:20:46;14.70;99.90
11736;DHT22;5924;51.398;7.088;2023-06-24T04:23:12;14.80;99.90
11736;DHT22;5924;51.398;7.088;2023-06-24T04:25:39;14.80;99.90
11736;DHT22;5924;51.398;7.088;2023-06-24T04:28:05;14.80;99.90
11736;DHT22;5924;51.398;7.088;2023-06-24T04:30:32;14.90;99.90
11736;DHT22;5924;51.398;7.088;2023-06-24T04:33:00;14.90;99.90
11736;DHT22;5924;51.398;7.088;2023-06-24T04:35:26;15.00;99.90
11736;DHT22;5924;51.398;7.088;2023-06-24T04:37:52;15.00;99.90
11736;DHT22;5924;51.398;7.088;2023-06-24T04:40:18;15.10;99.90
11736;DHT22;5924;51.398;7.088;2023-06-24T04:42:45;15.20;99.90
11736;DHT22;5924;51.398;7.088;2023-06-24T04:45:11;15.30;99.90
11736;DHT22;5924;51.398;7.088;2023-06-24T04:47:37;15.30;99.90
11736;DHT22;5924;51.398;7.088;2023-06-24T04:50:03;15.40;99.90
11736;DHT22;5924;51.398;7.088;2023-06-24T04:52:29;15.40;99.90
11736;DHT22;5924;51.398;7.088;2023-06-24T04:54:55;15.50;99.90
11736;DHT22;5924;51.398;7.088;2023-06-24T04:57:28;15.40;99.90
11736;DHT22;5924;51.398;7.088;2023-06-24T04:59:55;15.50;99.90
11736;DHT22;5924;51.398;7.088;2023-06-24T05:02:21;15.50;99.90
11736;DHT22;5924;51.398;7.088;2023-06-24T05:04:46;15.50;99.90
11736;DHT22;5924;51.398;7.088;2023-06-24T05:07:12;15.50;99.90
11736;DHT22;5924;51.398;7.088;2023-06-24T05:09:38;15.60;99.90
11736;DHT22;5924;51.398;7.088;2023-06-24T05:12:05;15.60;99.90
11736;DHT22;5924;51.398;7.088;2023-06-24T05:14:30;15.70;99.90
11736;DHT22;5924;51.398;7.088;2023-06-24T05:16:56;15.70;99.90
11736;DHT22;5924;51.398;7.088;2023-06-24T05:19:22;15.80;99.90
11736;DHT22;5924;51.398;7.088;2023-06-24T05:21:47;15.80;99.90
11736;DHT22;5924;51.398;7.088;2023-06-24T05:24:13;15.90;99.90
11736;DHT22;5924;51.398;7.088;2023-06-24T05:26:39;16.00;99.90
11736;DHT22;5924;51.398;7.088;2023-06-24T05:29:04;16.10;99.90
11736;DHT22;5924;51.398;7.088;2023-06-24T05:31:30;16.10;99.90
11736;DHT22;5924;51.398;7.088;2023-06-24T05:33:55;16.30;99.90
11736;DHT22;5924;51.398;7.088;2023-06-24T05:36:21;16.50;99.90
11736;DHT22;5924;51.398;7.088;2023-06-24T05:38:47;16.70;99.90
11736;DHT22;5924;51.398;7.088;2023-06-24T05:41:14;17.00;99.90
11736;DHT22;5924;51.398;7.088;2023-06-24T05:43:42;17.20;99.90
11736;DHT22;5924;51.398;7.088;2023-06-24T05:46:07;17.50;99.90
11736;DHT22;5924;51.398;7.088;2023-06-24T05:48:33;17.70;99.90
11736;DHT22;5924;51.398;7.088;2023-06-24T05:50:58;18.00;99.90
11736;DHT22;5924;51.398;7.088;2023-06-24T05:53:24;18.20;99.90
11736;DHT22;5924;51.398;7.088;2023-06-24T05:55:50;18.30;99.90
11736;DHT22;5924;51.398;7.088;2023-06-24T05:58:16;18.50;99.90
11736;DHT22;5924;51.398;7.088;2023-06-24T06:00:41;18.60;99.90
11736;DHT22;5924;51.398;7.088;2023-06-24T06:03:07;18.70;99.90
11736;DHT22;5924;51.398;7.088;2023-06-24T06:05:33;18.80;99.90
11736;DHT22;5924;51.398;7.088;2023-06-24T06:07:58;18.80;99.90
11736;DHT22;5924;51.398;7.088;2023-06-24T06:10:24;18.80;99.90
11736;DHT22;5924;51.398;7.088;2023-06-24T06:12:50;18.90;99.90
11736;DHT22;5924;51.398;7.088;2023-06-24T06:15:15;19.00;99.90
11736;DHT22;5924;51.398;7.088;2023-06-24T06:17:41;19.00;99.90
11736;DHT22;5924;51.398;7.088;2023-06-24T06:20:07;19.10;99.90
11736;DHT22;5924;51.398;7.088;2023-06-24T06:22:33;19.20;99.90
11736;DHT22;5924;51.398;7.088;2023-06-24T06:25:06;19.30;99.90
11736;DHT22;5924;51.398;7.088;2023-06-24T06:27:32;19.40;99.90
11736;DHT22;5924;51.398;7.088;2023-06-24T06:29:58;19.60;99.90
11736;DHT22;5924;51.398;7.088;2023-06-24T06:32:24;19.70;99.90
11736;DHT22;5924;51.398;7.088;2023-06-24T06:34:49;19.70;99.90
11736;DHT22;5924;51.398;7.088;2023-06-24T06:37:15;19.70;99.90
11736;DHT22;5924;51.398;7.088;2023-06-24T06:39:40;19.60;99.90
11736;DHT22;5924;51.398;7.088;2023-06-24T06:42:06;19.60;99.90
11736;DHT22;5924;51.398;7.088;2023-06-24T06:44:32;19.50;99.90
11736;DHT22;5924;51.398;7.088;2023-06-24T06:46:57;19.40;99.90
11736;DHT22;5924;51.398;7.088;2023-06-24T06:49:23;19.40;99.90
11736;DHT22;5924;51.398;7.088;2023-06-24T06:51:49;19.50;99.90
11736;DHT22;5924;51.398;7.088;2023-06-24T06:54:14;19.60;99.90
11736;DHT22;5924;51.398;7.088;2023-06-24T06:56:40;19.70;99.90
11736;DHT22;5924;51.398;7.088;2023-06-24T06:59:06;19.70;99.90
11736;DHT22;5924;51.398;7.088;2023-06-24T07:01:31;19.80;99.90
11736;DHT22;5924;51.398;7.088;2023-06-24T07:03:57;19.90;99.90
11736;DHT22;5924;51.398;7.088;2023-06-24T07:06:23;20.00;99.90
11736;DHT22;5924;51.398;7.088;2023-06-24T07:08:48;20.20;99.90
11736;DHT22;5924;51.398;7.088;2023-06-24T07:11:14;20.30;99.90
11736;DHT22;5924;51.398;7.088;2023-06-24T07:13:39;20.50;99.90
11736;DHT22;5924;51.398;7.088;2023-06-24T07:16:05;20.70;99.90
11736;DHT22;5924;51.398;7.088;2023-06-24T07:18:31;20.90;99.90
11736;DHT22;5924;51.398;7.088;2023-06-24T07:20:57;21.10;99.90
11736;DHT22;5924;51.398;7.088;2023-06-24T07:23:22;21.20;99.90
11736;DHT22;5924;51.398;7.088;2023-06-24T07:25:48;21.20;99.90
11736;DHT22;5924;51.398;7.088;2023-06-24T07:28:14;21.40;99.90
11736;DHT22;5924;51.398;7.088;2023-06-24T07:30:40;21.50;99.90
11736;DHT22;5924;51.398;7.088;2023-06-24T07:33:07;21.50;99.90
11736;DHT22;5924;51.398;7.088;2023-06-24T07:35:33;21.60;99.90
11736;DHT22;5924;51.398;7.088;2023-06-24T07:38:00;21.60;99.90
11736;DHT22;5924;51.398;7.088;2023-06-24T07:40:26;21.60;99.90
11736;DHT22;5924;51.398;7.088;2023-06-24T07:42:52;21.50;99.90
11736;DHT22;5924;51.398;7.088;2023-06-24T07:45:18;21.50;99.90
11736;DHT22;5924;51.398;7.088;2023-06-24T07:47:43;21.50;99.90
11736;DHT22;5924;51.398;7.088;2023-06-24T07:50:09;21.60;99.90
11736;DHT22;5924;51.398;7.088;2023-06-24T07:52:36;21.80;99.90
11736;DHT22;5924;51.398;7.088;2023-06-24T07:55:02;21.90;99.90
11736;DHT22;5924;51.398;7.088;2023-06-24T07:57:29;22.00;99.90
11736;DHT22;5924;51.398;7.088;2023-06-24T07:59:55;23.00;99.90
11736;DHT22;5924;51.398;7.088;2023-06-24T08:02:20;22.20;99.90
11736;DHT22;5924;51.398;7.088;2023-06-24T08:04:46;22.30;99.90
11736;DHT22;5924;51.398;7.088;2023-06-24T08:07:12;22.40;99.90
11736;DHT22;5924;51.398;7.088;2023-06-24T08:09:37;22.50;99.90
11736;DHT22;5924;51.398;7.088;2023-06-24T08:12:03;22.50;99.90
11736;DHT22;5924;51.398;7.088;2023-06-24T08:14:29;22.60;99.90
11736;DHT22;5924;51.398;7.088;2023-06-24T08:16:55;22.80;99.90
11736;DHT22;5924;51.398;7.088;2023-06-24T08:19:20;22.90;99.90
11736;DHT22;5924;51.398;7.088;2023-06-24T08:21:46;23.00;99.90
11736;DHT22;5924;51.398;7.088;2023-06-24T08:24:12;23.10;99.90
11736;DHT22;5924;51.398;7.088;2023-06-24T08:26:37;23.20;99.90
11736;DHT22;5924;51.398;7.088;2023-06-24T08:29:03;23.20;99.90
11736;DHT22;5924;51.398;7.088;2023-06-24T08:31:29;23.20;99.90
11736;DHT22;5924;51.398;7.088;2023-06-24T08:33:54;23.30;99.90
11736;DHT22;5924;51.398;7.088;2023-06-24T08:36:27;23.30;99.90
11736;DHT22;5924;51.398;7.088;2023-06-24T08:38:53;23.40;99.90
11736;DHT22;5924;51.398;7.088;2023-06-24T08:41:18;23.40;99.90
11736;DHT22;5924;51.398;7.088;2023-06-24T08:43:44;23.50;99.90
11736;DHT22;5924;51.398;7.088;2023-06-24T08:46:10;23.70;99.90
11736;DHT22;5924;51.398;7.088;2023-06-24T08:48:39;23.90;99.90
11736;DHT22;5924;51.398;7.088;2023-06-24T08:51:08;24.10;99.90
11736;DHT22;5924;51.398;7.088;2023-06-24T08:53:36;24.20;99.90
11736;DHT22;5924;51.398;7.088;2023-06-24T08:56:03;24.30;99.90
11736;DHT22;5924;51.398;7.088;2023-06-24T08:58:30;24.30;99.90
11736;DHT22;5924;51.398;7.088;2023-06-24T09:00:55;24.30;99.90
11736;DHT22;5924;51.398;7.088;2023-06-24T09:03:22;24.30;99.90
11736;DHT22;5924;51.398;7.088;2023-06-24T09:05:47;24.30;99.90
11736;DHT22;5924;51.398;7.088;2023-06-24T09:08:14;24.40;99.90
11736;DHT22;5924;51.398;7.088;2023-06-24T09:10:41;24.40;99.90
11736;DHT22;5924;51.398;7.088;2023-06-24T09:13:07;24.40;99.90
11736;DHT22;5924;51.398;7.088;2023-06-24T09:15:37;24.40;99.90
11736;DHT22;5924;51.398;7.088;2023-06-24T09:18:04;24.40;99.90
11736;DHT22;5924;51.398;7.088;2023-06-24T09:20:31;24.40;99.90
11736;DHT22;5924;51.398;7.088;2023-06-24T09:23:01;24.60;99.90
11736;DHT22;5924;51.398;7.088;2023-06-24T09:25:27;24.70;99.90
11736;DHT22;5924;51.398;7.088;2023-06-24T09:27:53;24.70;99.90
11736;DHT22;5924;51.398;7.088;2023-06-24T09:32:48;24.90;99.90
11736;DHT22;5924;51.398;7.088;2023-06-24T09:35:16;24.80;99.90
11736;DHT22;5924;51.398;7.088;2023-06-24T09:37:43;24.80;99.90
11736;DHT22;5924;51.398;7.088;2023-06-24T09:40:09;24.80;99.90
11736;DHT22;5924;51.398;7.088;2023-06-24T09:42:35;24.80;99.90
11736;DHT22;5924;51.398;7.088;2023-06-24T09:45:05;24.80;99.90
11736;DHT22;5924;51.398;7.088;2023-06-24T09:47:31;24.90;99.90
11736;DHT22;5924;51.398;7.088;2023-06-24T09:49:57;25.20;99.90
11736;DHT22;5924;51.398;7.088;2023-06-24T09:52:23;25.40;99.90
11736;DHT22;5924;51.398;7.088;2023-06-24T09:54:51;25.50;99.90
11736;DHT22;5924;51.398;7.088;2023-06-24T09:57:25;25.50;99.90
11736;DHT22;5924;51.398;7.088;2023-06-24T09:59:52;25.40;99.90
11736;DHT22;5924;51.398;7.088;2023-06-24T10:02:18;25.50;99.90
11736;DHT22;5924;51.398;7.088;2023-06-24T10:04:45;25.70;99.90
11736;DHT22;5924;51.398;7.088;2023-06-24T10:07:12;25.70;99.90
11736;DHT22;5924;51.398;7.088;2023-06-24T10:09:40;25.70;99.90
11736;DHT22;5924;51.398;7.088;2023-06-24T10:12:06;25.90;99.90
11736;DHT22;5924;51.398;7.088;2023-06-24T10:14:32;25.90;99.90
11736;DHT22;5924;51.398;7.088;2023-06-24T10:17:04;26.10;99.90
11736;DHT22;5924;51.398;7.088;2023-06-24T10:19:30;26.20;99.90
11736;DHT22;5924;51.398;7.088;2023-06-24T10:21:59;26.30;99.90
11736;DHT22;5924;51.398;7.088;2023-06-24T10:27:22;26.40;99.90
11736;DHT22;5924;51.398;7.088;2023-06-24T10:29:49;24.60;99.90
11736;DHT22;5924;51.398;7.088;2023-06-24T10:32:16;26.30;99.90
11736;DHT22;5924;51.398;7.088;2023-06-24T10:34:45;26.30;99.90
11736;DHT22;5924;51.398;7.088;2023-06-24T10:37:21;24.40;99.90
11736;DHT22;5924;51.398;7.088;2023-06-24T10:40:00;26.30;99.90
11736;DHT22;5924;51.398;7.088;2023-06-24T10:42:39;26.30;99.90
11736;DHT22;5924;51.398;7.088;2023-06-24T10:50:08;26.50;99.90
11736;DHT22;5924;51.398;7.088;2023-06-24T10:52:38;26.60;99.90
11736;DHT22;5924;51.398;7.088;2023-06-24T10:55:04;26.60;99.90
11736;DHT22;5924;51.398;7.088;2023-06-24T10:57:30;26.70;99.90
11736;DHT22;5924;51.398;7.088;2023-06-24T10:59:57;26.70;99.90
11736;DHT22;5924;51.398;7.088;2023-06-24T11:02:24;26.70;99.90
11736;DHT22;5924;51.398;7.088;2023-06-24T11:05:10;26.70;99.90
11736;DHT22;5924;51.398;7.088;2023-06-24T11:07:37;26.90;99.90
11736;DHT22;5924;51.398;7.088;2023-06-24T11:12:33;27.10;99.90
11736;DHT22;5924;51.398;7.088;2023-06-24T11:15:04;27.00;99.90
11736;DHT22;5924;51.398;7.088;2023-06-24T11:17:30;27.00;99.90
11736;DHT22;5924;51.398;7.088;2023-06-24T11:19:57;27.10;99.90
11736;DHT22;5924;51.398;7.088;2023-06-24T11:22:24;27.20;99.90
11736;DHT22;5924;51.398;7.088;2023-06-24T11:24:50;27.20;99.90
11736;DHT22;5924;51.398;7.088;2023-06-24T11:27:16;27.30;99.90
11736;DHT22;5924;51.398;7.088;2023-06-24T11:29:42;27.30;99.90
11736;DHT22;5924;51.398;7.088;2023-06-24T11:32:08;27.30;99.90
11736;DHT22;5924;51.398;7.088;2023-06-24T11:34:35;27.20;99.90
11736;DHT22;5924;51.398;7.088;2023-06-24T11:37:11;27.20;99.90
11736;DHT22;5924;51.398;7.088;2023-06-24T11:39:37;27.40;99.90
11736;DHT22;5924;51.398;7.088;2023-06-24T11:42:06;27.70;99.90
11736;DHT22;5924;51.398;7.088;2023-06-24T11:44:32;28.10;99.90
11736;DHT22;5924;51.398;7.088;2023-06-24T11:47:08;28.20;99.90
11736;DHT22;5924;51.398;7.088;2023-06-24T11:49:50;28.50;99.90
11736;DHT22;5924;51.398;7.088;2023-06-24T11:52:17;29.00;99.90
11736;DHT22;5924;51.398;7.088;2023-06-24T11:54:42;29.20;99.90
11736;DHT22;5924;51.398;7.088;2023-06-24T11:57:08;29.20;99.90
11736;DHT22;5924;51.398;7.088;2023-06-24T11:59:35;29.10;99.90
11736;DHT22;5924;51.398;7.088;2023-06-24T12:02:01;28.70;99.10
11736;DHT22;5924;51.398;7.088;2023-06-24T12:04:33;28.60;99.40
11736;DHT22;5924;51.398;7.088;2023-06-24T12:07:02;28.80;98.90
11736;DHT22;5924;51.398;7.088;2023-06-24T12:09:28;29.20;97.60
11736;DHT22;5924;51.398;7.088;2023-06-24T12:11:54;29.60;99.00
11736;DHT22;5924;51.398;7.088;2023-06-24T12:14:20;29.80;99.10
11736;DHT22;5924;51.398;7.088;2023-06-24T12:16:46;30.10;98.60
11736;DHT22;5924;51.398;7.088;2023-06-24T12:19:11;30.10;96.70
11736;DHT22;5924;51.398;7.088;2023-06-24T12:21:37;30.10;97.60
11736;DHT22;5924;51.398;7.088;2023-06-24T12:24:04;30.40;96.40
11736;DHT22;5924;51.398;7.088;2023-06-24T12:26:31;30.60;96.00
11736;DHT22;5924;51.398;7.088;2023-06-24T12:28:56;30.50;94.30
11736;DHT22;5924;51.398;7.088;2023-06-24T12:31:23;30.30;93.80
11736;DHT22;5924;51.398;7.088;2023-06-24T12:33:50;30.40;93.10
11736;DHT22;5924;51.398;7.088;2023-06-24T12:36:16;30.60;96.20
11736;DHT22;5924;51.398;7.088;2023-06-24T12:38:41;30.90;93.70
11736;DHT22;5924;51.398;7.088;2023-06-24T12:41:07;30.90;91.50
11736;DHT22;5924;51.398;7.088;2023-06-24T12:43:33;31.20;93.80
11736;DHT22;5924;51.398;7.088;2023-06-24T12:45:59;31.60;90.50
11736;DHT22;5924;51.398;7.088;2023-06-24T12:48:24;32.00;90.80
11736;DHT22;5924;51.398;7.088;2023-06-24T12:50:50;31.20;91.10
11736;DHT22;5924;51.398;7.088;2023-06-24T12:53:19;31.30;90.10
11736;DHT22;5924;51.398;7.088;2023-06-24T12:55:44;31.30;84.70
11736;DHT22;5924;51.398;7.088;2023-06-24T12:58:10;31.30;83.50
11736;DHT22;5924;51.398;7.088;2023-06-24T13:00:36;31.20;84.00
11736;DHT22;5924;51.398;7.088;2023-06-24T13:03:01;31.40;87.00
11736;DHT22;5924;51.398;7.088;2023-06-24T13:05:27;32.00;90.60
11736;DHT22;5924;51.398;7.088;2023-06-24T13:07:53;32.10;82.30
11736;DHT22;5924;51.398;7.088;2023-06-24T13:10:18;32.40;74.90
11736;DHT22;5924;51.398;7.088;2023-06-24T13:12:44;32.50;70.00
11736;DHT22;5924;51.398;7.088;2023-06-24T13:15:10;32.70;68.10
11736;DHT22;5924;51.398;7.088;2023-06-24T13:17:36;32.70;72.90
11736;DHT22;5924;51.398;7.088;2023-06-24T13:20:02;32.90;69.30
11736;DHT22;5924;51.398;7.088;2023-06-24T13:22:31;33.00;68.00
11736;DHT22;5924;51.398;7.088;2023-06-24T13:24:57;33.50;71.90
11736;DHT22;5924;51.398;7.088;2023-06-24T13:27:22;33.40;64.60
11736;DHT22;5924;51.398;7.088;2023-06-24T13:29:48;33.20;61.00
11736;DHT22;5924;51.398;7.088;2023-06-24T13:32:13;32.90;65.80
11736;DHT22;5924;51.398;7.088;2023-06-24T13:34:39;33.20;65.00
11736;DHT22;5924;51.398;7.088;2023-06-24T13:37:05;33.10;61.00
11736;DHT22;5924;51.398;7.088;2023-06-24T13:39:31;33.40;61.20
11736;DHT22;5924;51.398;7.088;2023-06-24T13:41:58;33.50;63.50
11736;DHT22;5924;51.398;7.088;2023-06-24T13:44:23;33.30;60.70
11736;DHT22;5924;51.398;7.088;2023-06-24T13:46:49;33.10;63.30
11736;DHT22;5924;51.398;7.088;2023-06-24T13:49:16;33.60;66.70
11736;DHT22;5924;51.398;7.088;2023-06-24T13:51:42;34.80;64.90
11736;DHT22;5924;51.398;7.088;2023-06-24T13:54:07;35.90;61.40
11736;DHT22;5924;51.398;7.088;2023-06-24T13:56:33;35.50;58.30
11736;DHT22;5924;51.398;7.088;2023-06-24T13:58:59;35.00;61.50
11736;DHT22;5924;51.398;7.088;2023-06-24T14:01:25;34.80;60.00
11736;DHT22;5924;51.398;7.088;2023-06-24T14:03:52;35.00;61.60
11736;DHT22;5924;51.398;7.088;2023-06-24T14:06:19;34.80;57.50
11736;DHT22;5924;51.398;7.088;2023-06-24T14:08:45;35.00;57.70
11736;DHT22;5924;51.398;7.088;2023-06-24T14:11:12;34.80;56.80
11736;DHT22;5924;51.398;7.088;2023-06-24T14:13:41;34.90;58.40
11736;DHT22;5924;51.398;7.088;2023-06-24T14:16:07;34.90;54.70
11736;DHT22;5924;51.398;7.088;2023-06-24T14:18:32;34.40;55.50
11736;DHT22;5924;51.398;7.088;2023-06-24T14:20:59;34.20;55.40
11736;DHT22;5924;51.398;7.088;2023-06-24T14:23:25;34.70;56.10
11736;DHT22;5924;51.398;7.088;2023-06-24T14:25:52;34.80;50.30
11736;DHT22;5924;51.398;7.088;2023-06-24T14:28:17;34.80;53.70
11736;DHT22;5924;51.398;7.088;2023-06-24T14:30:43;34.70;52.60
11736;DHT22;5924;51.398;7.088;2023-06-24T14:33:09;34.40;52.40
11736;DHT22;5924;51.398;7.088;2023-06-24T14:35:34;34.60;49.70
11736;DHT22;5924;51.398;7.088;2023-06-24T14:38:00;35.00;53.00
11736;DHT22;5924;51.398;7.088;2023-06-24T14:40:26;35.50;53.20
11736;DHT22;5924;51.398;7.088;2023-06-24T14:42:51;35.60;51.30
11736;DHT22;5924;51.398;7.088;2023-06-24T14:45:17;35.80;49.80
11736;DHT22;5924;51.398;7.088;2023-06-24T14:47:43;35.60;50.70
11736;DHT22;5924;51.398;7.088;2023-06-24T14:50:09;35.50;50.30
11736;DHT22;5924;51.398;7.088;2023-06-24T14:52:34;35.70;52.50
11736;DHT22;5924;51.398;7.088;2023-06-24T14:55:00;36.30;53.10
11736;DHT22;5924;51.398;7.088;2023-06-24T14:57:26;36.50;53.30
11736;DHT22;5924;51.398;7.088;2023-06-24T14:59:52;36.40;48.70
11736;DHT22;5924;51.398;7.088;2023-06-24T15:02:17;36.30;51.50
11736;DHT22;5924;51.398;7.088;2023-06-24T15:04:43;35.50;49.30
11736;DHT22;5924;51.398;7.088;2023-06-24T15:07:09;35.70;51.80
11736;DHT22;5924;51.398;7.088;2023-06-24T15:09:34;36.40;49.20
11736;DHT22;5924;51.398;7.088;2023-06-24T15:12:01;36.80;50.40
11736;DHT22;5924;51.398;7.088;2023-06-24T15:14:27;36.70;46.00
11736;DHT22;5924;51.398;7.088;2023-06-24T15:16:53;36.50;47.60
11736;DHT22;5924;51.398;7.088;2023-06-24T15:19:19;36.10;50.60
11736;DHT22;5924;51.398;7.088;2023-06-24T15:21:45;36.40;50.80
11736;DHT22;5924;51.398;7.088;2023-06-24T15:24:11;36.70;49.40
11736;DHT22;5924;51.398;7.088;2023-06-24T15:26:36;37.50;49.50
11736;DHT22;5924;51.398;7.088;2023-06-24T15:29:02;37.60;45.50
11736;DHT22;5924;51.398;7.088;2023-06-24T15:31:28;37.80;47.50
11736;DHT22;5924;51.398;7.088;2023-06-24T15:33:54;37.70;46.90
11736;DHT22;5924;51.398;7.088;2023-06-24T15:36:20;38.00;46.30
11736;DHT22;5924;51.398;7.088;2023-06-24T15:38:47;37.90;46.30
11736;DHT22;5924;51.398;7.088;2023-06-24T15:41:13;37.90;46.10
11736;DHT22;5924;51.398;7.088;2023-06-24T15:43:39;38.00;45.90
11736;DHT22;5924;51.398;7.088;2023-06-24T15:46:05;38.30;44.40
11736;DHT22;5924;51.398;7.088;2023-06-24T15:48:31;38.70;45.50
11736;DHT22;5924;51.398;7.088;2023-06-24T15:50:57;39.00;44.40
11736;DHT22;5924;51.398;7.088;2023-06-24T15:53:25;39.20;44.40
11736;DHT22;5924;51.398;7.088;2023-06-24T15:55:50;39.60;44.00
11736;DHT22;5924;51.398;7.088;2023-06-24T15:58:16;39.60;41.20
11736;DHT22;5924;51.398;7.088;2023-06-24T16:00:42;39.20;40.60
11736;DHT22;5924;51.398;7.088;2023-06-24T16:03:08;39.30;42.20
11736;DHT22;5924;51.398;7.088;2023-06-24T16:05:33;39.30;42.40
11736;DHT22;5924;51.398;7.088;2023-06-24T16:07:59;39.80;41.70
11736;DHT22;5924;51.398;7.088;2023-06-24T16:10:25;40.10;40.40